sensor_id;sensor_type;location;lat;lon;timestamp;temperature;humidity
5980;DHT22;3016;50.308;8.258;2023-02-15T00:00:54;-0.20;50.90
5980;DHT22;3016;50.308;8.258;2023-02-15T00:03:55;-0.20;51.80
5980;DHT22;3016;50.308;8.258;2023-02-15T00:06:56;-0.20;53.70
5980;DHT22;3016;50.308;8.258;2023-02-15T00:09:57;-0.20;54.10
5980;DHT22;3016;50.308;8.258;2023-02-15T00:12:59;-0.20;54.90
5980;DHT22;3016;50.308;8.258;2023-02-15T00:16:05;-0.20;54.80
5980;DHT22;3016;50.308;8.258;2023-02-15T00:19:08;-0.30;54.40
5980;DHT22;3016;50.308;8.258;2023-02-15T00:22:28;-0.30;54.70
5980;DHT22;3016;50.308;8.258;2023-02-15T00:25:29;-0.30;55.50
5980;DHT22;3016;50.308;8.258;2023-02-15T00:28:31;-0.40;56.00
5980;DHT22;3016;50.308;8.258;2023-02-15T00:31:32;-0.30;57.00
5980;DHT22;3016;50.308;8.258;2023-02-15T00:34:42;-0.30;58.30
5980;DHT22;3016;50.308;8.258;2023-02-15T00:37:43;-0.30;59.50
5980;DHT22;3016;50.308;8.258;2023-02-15T00:40:44;-0.20;60.20
5980;DHT22;3016;50.308;8.258;2023-02-15T00:43:53;-0.30;58.80
5980;DHT22;3016;50.308;8.258;2023-02-15T00:46:53;-0.30;58.60
5980;DHT22;3016;50.308;8.258;2023-02-15T00:49:54;-0.40;59.20
5980;DHT22;3016;50.308;8.258;2023-02-15T00:52:55;-0.40;59.30
5980;DHT22;3016;50.308;8.258;2023-02-15T00:55:57;-0.50;58.50
5980;DHT22;3016;50.308;8.258;2023-02-15T00:58:58;-0.50;58.40
5980;DHT22;3016;50.308;8.258;2023-02-15T01:01:59;-0.50;58.40
5980;DHT22;3016;50.308;8.258;2023-02-15T01:05:00;-0.50;58.70
5980;DHT22;3016;50.308;8.258;2023-02-15T01:08:01;-0.50;58.50
5980;DHT22;3016;50.308;8.258;2023-02-15T01:11:07;-0.50;58.50
5980;DHT22;3016;50.308;8.258;2023-02-15T01:14:10;-0.50;58.40
5980;DHT22;3016;50.308;8.258;2023-02-15T01:17:11;-0.60;58.20
5980;DHT22;3016;50.308;8.258;2023-02-15T01:20:12;-0.60;57.60
5980;DHT22;3016;50.308;8.258;2023-02-15T01:23:13;-0.60;57.60
5980;DHT22;3016;50.308;8.258;2023-02-15T01:26:26;-0.60;58.00
5980;DHT22;3016;50.308;8.258;2023-02-15T01:29:35;-0.60;57.50
5980;DHT22;3016;50.308;8.258;2023-02-15T01:32:43;-0.60;57.60
5980;DHT22;3016;50.308;8.258;2023-02-15T01:35:47;-0.60;57.00
5980;DHT22;3016;50.308;8.258;2023-02-15T01:38:48;-0.60;56.90
5980;DHT22;3016;50.308;8.258;2023-02-15T01:41:50;-0.60;56.90
5980;DHT22;3016;50.308;8.258;2023-02-15T01:44:59;-0.60;57.10
5980;DHT22;3016;50.308;8.258;2023-02-15T01:48:19;-0.60;57.50
5980;DHT22;3016;50.308;8.258;2023-02-15T01:51:23;-0.60;58.10
5980;DHT22;3016;50.308;8.258;2023-02-15T01:54:32;-0.60;58.10
5980;DHT22;3016;50.308;8.258;2023-02-15T01:57:36;-0.60;58.10
5980;DHT22;3016;50.308;8.258;2023-02-15T02:00:37;-0.50;58.30
5980;DHT22;3016;50.308;8.258;2023-02-15T02:04:05;-0.50;58.20
5980;DHT22;3016;50.308;8.258;2023-02-15T02:07:19;-0.50;57.50
5980;DHT22;3016;50.308;8.258;2023-02-15T02:10:22;-0.60;57.10
5980;DHT22;3016;50.308;8.258;2023-02-15T02:13:24;-0.60;57.10
5980;DHT22;3016;50.308;8.258;2023-02-15T02:16:49;-0.60;57.00
5980;DHT22;3016;50.308;8.258;2023-02-15T02:20:15;-0.60;57.10
5980;DHT22;3016;50.308;8.258;2023-02-15T02:23:53;-0.60;56.60
5980;DHT22;3016;50.308;8.258;2023-02-15T02:34:29;-0.60;53.20
5980;DHT22;3016;50.308;8.258;2023-02-15T02:41:31;-0.70;51.50
5980;DHT22;3016;50.308;8.258;2023-02-15T02:44:59;-0.60;51.60
5980;DHT22;3016;50.308;8.258;2023-02-15T02:48:17;-0.60;50.80
5980;DHT22;3016;50.308;8.258;2023-02-15T02:51:21;-0.60;50.10
5980;DHT22;3016;50.308;8.258;2023-02-15T02:54:24;-0.70;47.70
5980;DHT22;3016;50.308;8.258;2023-02-15T02:57:26;-0.70;46.00
5980;DHT22;3016;50.308;8.258;2023-02-15T03:00:33;-0.80;44.00
5980;DHT22;3016;50.308;8.258;2023-02-15T03:03:47;-0.80;41.90
5980;DHT22;3016;50.308;8.258;2023-02-15T03:07:03;-0.80;41.50
5980;DHT22;3016;50.308;8.258;2023-02-15T03:10:08;-0.70;40.00
5980;DHT22;3016;50.308;8.258;2023-02-15T03:13:10;-0.70;37.80
5980;DHT22;3016;50.308;8.258;2023-02-15T03:16:12;-0.80;35.00
5980;DHT22;3016;50.308;8.258;2023-02-15T03:19:29;-0.80;34.10
5980;DHT22;3016;50.308;8.258;2023-02-15T03:22:46;-0.80;33.70
5980;DHT22;3016;50.308;8.258;2023-02-15T03:29:38;-0.70;33.50
5980;DHT22;3016;50.308;8.258;2023-02-15T03:32:41;-0.60;34.90
5980;DHT22;3016;50.308;8.258;2023-02-15T03:35:53;-0.50;36.60
5980;DHT22;3016;50.308;8.258;2023-02-15T03:39:18;-0.50;37.80
5980;DHT22;3016;50.308;8.258;2023-02-15T03:42:32;-0.40;38.60
5980;DHT22;3016;50.308;8.258;2023-02-15T03:45:36;-0.40;38.80
5980;DHT22;3016;50.308;8.258;2023-02-15T03:48:53;-0.50;37.80
5980;DHT22;3016;50.308;8.258;2023-02-15T03:52:16;-0.50;37.10
5980;DHT22;3016;50.308;8.258;2023-02-15T03:55:18;-0.50;36.10
5980;DHT22;3016;50.308;8.258;2023-02-15T03:58:19;-0.50;36.30
5980;DHT22;3016;50.308;8.258;2023-02-15T04:05:20;-0.50;35.10
5980;DHT22;3016;50.308;8.258;2023-02-15T04:08:21;-0.50;36.40
5980;DHT22;3016;50.308;8.258;2023-02-15T04:11:42;-0.50;37.10
5980;DHT22;3016;50.308;8.258;2023-02-15T04:14:43;-0.40;38.90
5980;DHT22;3016;50.308;8.258;2023-02-15T04:18:03;-0.30;40.00
5980;DHT22;3016;50.308;8.258;2023-02-15T04:21:05;-0.30;39.00
5980;DHT22;3016;50.308;8.258;2023-02-15T04:24:25;-0.40;37.20
5980;DHT22;3016;50.308;8.258;2023-02-15T04:27:47;-0.40;36.60
5980;DHT22;3016;50.308;8.258;2023-02-15T04:30:50;-0.40;36.60
5980;DHT22;3016;50.308;8.258;2023-02-15T04:33:52;-0.40;36.30
5980;DHT22;3016;50.308;8.258;2023-02-15T04:36:53;-0.30;36.30
5980;DHT22;3016;50.308;8.258;2023-02-15T04:39:54;-0.40;36.40
5980;DHT22;3016;50.308;8.258;2023-02-15T04:42:56;-0.30;36.20
5980;DHT22;3016;50.308;8.258;2023-02-15T04:45:57;-0.30;35.00
5980;DHT22;3016;50.308;8.258;2023-02-15T04:49:00;-0.30;34.20
5980;DHT22;3016;50.308;8.258;2023-02-15T04:52:02;-0.30;34.70
5980;DHT22;3016;50.308;8.258;2023-02-15T04:55:04;-0.30;34.70
5980;DHT22;3016;50.308;8.258;2023-02-15T04:58:05;-0.30;35.00
5980;DHT22;3016;50.308;8.258;2023-02-15T05:01:08;-0.30;35.30
5980;DHT22;3016;50.308;8.258;2023-02-15T05:04:09;-0.30;36.00
5980;DHT22;3016;50.308;8.258;2023-02-15T05:07:10;-0.30;36.10
5980;DHT22;3016;50.308;8.258;2023-02-15T05:10:12;-0.30;36.70
5980;DHT22;3016;50.308;8.258;2023-02-15T05:13:13;-0.30;38.00
5980;DHT22;3016;50.308;8.258;2023-02-15T05:16:17;-0.20;40.70
5980;DHT22;3016;50.308;8.258;2023-02-15T05:19:18;0.00;43.60
5980;DHT22;3016;50.308;8.258;2023-02-15T05:22:26;-0.10;42.30
5980;DHT22;3016;50.308;8.258;2023-02-15T05:25:27;-0.10;40.90
5980;DHT22;3016;50.308;8.258;2023-02-15T05:28:46;-0.10;40.30
5980;DHT22;3016;50.308;8.258;2023-02-15T05:31:47;-0.20;39.20
5980;DHT22;3016;50.308;8.258;2023-02-15T05:34:49;-0.10;39.00
5980;DHT22;3016;50.308;8.258;2023-02-15T05:37:52;-0.20;39.20
5980;DHT22;3016;50.308;8.258;2023-02-15T05:41:02;-0.10;40.50
5980;DHT22;3016;50.308;8.258;2023-02-15T05:44:03;-0.10;41.90
5980;DHT22;3016;50.308;8.258;2023-02-15T05:47:04;0.10;44.00
5980;DHT22;3016;50.308;8.258;2023-02-15T05:50:08;0.10;46.00
5980;DHT22;3016;50.308;8.258;2023-02-15T05:53:11;0.20;47.30
5980;DHT22;3016;50.308;8.258;2023-02-15T05:56:15;0.20;48.70
5980;DHT22;3016;50.308;8.258;2023-02-15T05:59:29;0.20;49.80
5980;DHT22;3016;50.308;8.258;2023-02-15T06:02:34;0.30;50.90
5980;DHT22;3016;50.308;8.258;2023-02-15T06:05:58;0.20;50.20
5980;DHT22;3016;50.308;8.258;2023-02-15T06:09:11;0.20;50.60
5980;DHT22;3016;50.308;8.258;2023-02-15T06:12:12;0.20;52.10
5980;DHT22;3016;50.308;8.258;2023-02-15T06:15:15;0.30;53.40
5980;DHT22;3016;50.308;8.258;2023-02-15T06:18:23;0.30;54.30
5980;DHT22;3016;50.308;8.258;2023-02-15T06:21:24;0.30;55.00
5980;DHT22;3016;50.308;8.258;2023-02-15T06:24:25;0.40;55.80
5980;DHT22;3016;50.308;8.258;2023-02-15T06:27:37;0.40;56.40
5980;DHT22;3016;50.308;8.258;2023-02-15T06:30:38;0.40;57.40
5980;DHT22;3016;50.308;8.258;2023-02-15T06:33:39;0.40;58.50
5980;DHT22;3016;50.308;8.258;2023-02-15T06:36:40;0.40;58.50
5980;DHT22;3016;50.308;8.258;2023-02-15T06:39:41;0.40;59.00
5980;DHT22;3016;50.308;8.258;2023-02-15T06:42:42;0.40;59.10
5980;DHT22;3016;50.308;8.258;2023-02-15T06:45:46;0.40;59.70
5980;DHT22;3016;50.308;8.258;2023-02-15T06:48:47;0.40;60.10
5980;DHT22;3016;50.308;8.258;2023-02-15T06:51:47;0.50;60.90
5980;DHT22;3016;50.308;8.258;2023-02-15T06:54:48;0.50;61.10
5980;DHT22;3016;50.308;8.258;2023-02-15T06:57:49;0.50;61.70
5980;DHT22;3016;50.308;8.258;2023-02-15T07:00:51;0.50;61.70
5980;DHT22;3016;50.308;8.258;2023-02-15T07:03:51;0.50;61.50
5980;DHT22;3016;50.308;8.258;2023-02-15T07:06:52;0.50;61.40
5980;DHT22;3016;50.308;8.258;2023-02-15T07:09:53;0.50;61.30
5980;DHT22;3016;50.308;8.258;2023-02-15T07:12:53;0.60;61.30
5980;DHT22;3016;50.308;8.258;2023-02-15T07:15:54;0.50;61.50
5980;DHT22;3016;50.308;8.258;2023-02-15T07:18:55;0.60;60.70
5980;DHT22;3016;50.308;8.258;2023-02-15T07:21:55;0.60;60.40
5980;DHT22;3016;50.308;8.258;2023-02-15T07:24:56;0.60;60.10
5980;DHT22;3016;50.308;8.258;2023-02-15T07:27:58;0.60;59.20
5980;DHT22;3016;50.308;8.258;2023-02-15T07:31:04;0.60;59.20
5980;DHT22;3016;50.308;8.258;2023-02-15T07:34:06;0.60;59.20
5980;DHT22;3016;50.308;8.258;2023-02-15T07:37:07;0.60;57.60
5980;DHT22;3016;50.308;8.258;2023-02-15T07:40:08;0.60;58.70
5980;DHT22;3016;50.308;8.258;2023-02-15T07:43:09;0.60;59.20
5980;DHT22;3016;50.308;8.258;2023-02-15T07:46:12;0.70;59.30
5980;DHT22;3016;50.308;8.258;2023-02-15T07:49:14;0.70;58.60
5980;DHT22;3016;50.308;8.258;2023-02-15T07:52:15;0.70;58.20
5980;DHT22;3016;50.308;8.258;2023-02-15T07:55:16;0.70;57.40
5980;DHT22;3016;50.308;8.258;2023-02-15T07:58:17;0.70;57.30
5980;DHT22;3016;50.308;8.258;2023-02-15T08:01:19;0.80;56.70
5980;DHT22;3016;50.308;8.258;2023-02-15T08:04:47;0.80;56.70
5980;DHT22;3016;50.308;8.258;2023-02-15T08:07:47;0.80;54.00
5980;DHT22;3016;50.308;8.258;2023-02-15T08:10:48;0.80;53.70
5980;DHT22;3016;50.308;8.258;2023-02-15T08:14:18;0.80;52.20
5980;DHT22;3016;50.308;8.258;2023-02-15T08:17:20;0.80;50.90
5980;DHT22;3016;50.308;8.258;2023-02-15T08:20:21;0.90;49.20
5980;DHT22;3016;50.308;8.258;2023-02-15T08:23:21;0.90;47.00
5980;DHT22;3016;50.308;8.258;2023-02-15T08:26:23;1.00;46.10
5980;DHT22;3016;50.308;8.258;2023-02-15T08:29:26;1.00;44.80
5980;DHT22;3016;50.308;8.258;2023-02-15T08:32:28;1.10;43.60
5980;DHT22;3016;50.308;8.258;2023-02-15T08:35:28;1.10;41.30
5980;DHT22;3016;50.308;8.258;2023-02-15T08:38:29;1.00;38.40
5980;DHT22;3016;50.308;8.258;2023-02-15T08:41:32;1.10;36.90
5980;DHT22;3016;50.308;8.258;2023-02-15T08:44:34;1.10;35.70
5980;DHT22;3016;50.308;8.258;2023-02-15T08:47:35;1.20;34.30
5980;DHT22;3016;50.308;8.258;2023-02-15T08:50:35;1.20;32.10
5980;DHT22;3016;50.308;8.258;2023-02-15T08:53:41;1.30;29.40
5980;DHT22;3016;50.308;8.258;2023-02-15T08:56:44;1.30;27.10
5980;DHT22;3016;50.308;8.258;2023-02-15T08:59:44;1.40;23.90
5980;DHT22;3016;50.308;8.258;2023-02-15T09:02:45;1.40;20.20
5980;DHT22;3016;50.308;8.258;2023-02-15T09:05:46;1.50;17.30
5980;DHT22;3016;50.308;8.258;2023-02-15T09:08:47;1.50;12.50
5980;DHT22;3016;50.308;8.258;2023-02-15T09:11:50;1.50;10.90
5980;DHT22;3016;50.308;8.258;2023-02-15T09:14:51;1.50;9.90
5980;DHT22;3016;50.308;8.258;2023-02-15T09:17:52;1.60;7.80
5980;DHT22;3016;50.308;8.258;2023-02-15T09:20:53;1.70;7.00
5980;DHT22;3016;50.308;8.258;2023-02-15T09:23:57;1.80;4.30
5980;DHT22;3016;50.308;8.258;2023-02-15T09:26:59;1.90;2.10
5980;DHT22;3016;50.308;8.258;2023-02-15T09:30:00;1.90;1.00
5980;DHT22;3016;50.308;8.258;2023-02-15T09:33:01;2.00;1.00
5980;DHT22;3016;50.308;8.258;2023-02-15T09:36:03;2.00;1.00
5980;DHT22;3016;50.308;8.258;2023-02-15T09:39:17;2.10;1.00
5980;DHT22;3016;50.308;8.258;2023-02-15T09:46:05;2.20;1.00
5980;DHT22;3016;50.308;8.258;2023-02-15T09:49:42;2.10;1.00
5980;DHT22;3016;50.308;8.258;2023-02-15T09:53:53;2.10;1.00
5980;DHT22;3016;50.308;8.258;2023-02-15T09:57:19;2.20;1.00
5980;DHT22;3016;50.308;8.258;2023-02-15T10:04:14;2.30;1.00
5980;DHT22;3016;50.308;8.258;2023-02-15T10:11:15;2.50;1.00
5980;DHT22;3016;50.308;8.258;2023-02-15T10:14:59;2.60;1.00
5980;DHT22;3016;50.308;8.258;2023-02-15T10:29:32;2.60;1.00
5980;DHT22;3016;50.308;8.258;2023-02-15T10:33:13;2.70;1.00
5980;DHT22;3016;50.308;8.258;2023-02-15T10:50:37;2.80;1.00
5980;DHT22;3016;50.308;8.258;2023-02-15T10:54:32;2.90;1.00
5980;DHT22;3016;50.308;8.258;2023-02-15T10:57:47;3.00;1.00
5980;DHT22;3016;50.308;8.258;2023-02-15T11:02:07;3.00;1.00
5980;DHT22;3016;50.308;8.258;2023-02-15T11:08:31;3.10;1.00
5980;DHT22;3016;50.308;8.258;2023-02-15T11:11:37;3.20;1.00
5980;DHT22;3016;50.308;8.258;2023-02-15T11:14:45;3.20;1.00
5980;DHT22;3016;50.308;8.258;2023-02-15T11:18:26;3.10;1.00
5980;DHT22;3016;50.308;8.258;2023-02-15T11:21:39;3.10;1.00
5980;DHT22;3016;50.308;8.258;2023-02-15T11:24:45;3.20;1.00
5980;DHT22;3016;50.308;8.258;2023-02-15T11:27:48;3.30;1.00
5980;DHT22;3016;50.308;8.258;2023-02-15T11:30:54;3.40;1.00
5980;DHT22;3016;50.308;8.258;2023-02-15T11:34:00;3.50;1.00
5980;DHT22;3016;50.308;8.258;2023-02-15T11:37:16;3.60;1.00
5980;DHT22;3016;50.308;8.258;2023-02-15T11:40:30;3.70;1.00
5980;DHT22;3016;50.308;8.258;2023-02-15T11:43:34;3.70;1.00
5980;DHT22;3016;50.308;8.258;2023-02-15T11:46:46;3.90;1.00
5980;DHT22;3016;50.308;8.258;2023-02-15T11:49:47;4.20;1.00
5980;DHT22;3016;50.308;8.258;2023-02-15T11:52:49;4.10;1.00
5980;DHT22;3016;50.308;8.258;2023-02-15T11:55:50;4.10;1.00
5980;DHT22;3016;50.308;8.258;2023-02-15T11:59:02;4.20;1.00
5980;DHT22;3016;50.308;8.258;2023-02-15T12:02:16;4.30;1.00
5980;DHT22;3016;50.308;8.258;2023-02-15T12:05:23;4.60;1.00
5980;DHT22;3016;50.308;8.258;2023-02-15T12:08:37;4.90;1.00
5980;DHT22;3016;50.308;8.258;2023-02-15T12:11:40;5.20;1.00
5980;DHT22;3016;50.308;8.258;2023-02-15T12:14:52;5.40;1.00
5980;DHT22;3016;50.308;8.258;2023-02-15T12:17:55;5.70;1.00
5980;DHT22;3016;50.308;8.258;2023-02-15T12:20:59;5.60;1.00
5980;DHT22;3016;50.308;8.258;2023-02-15T12:27:44;5.90;1.00
5980;DHT22;3016;50.308;8.258;2023-02-15T12:31:01;6.20;1.00
5980;DHT22;3016;50.308;8.258;2023-02-15T12:34:21;6.70;1.00
5980;DHT22;3016;50.308;8.258;2023-02-15T12:37:31;7.20;1.00
5980;DHT22;3016;50.308;8.258;2023-02-15T12:40:35;7.70;1.00
5980;DHT22;3016;50.308;8.258;2023-02-15T12:44:09;7.50;1.00
5980;DHT22;3016;50.308;8.258;2023-02-15T12:47:19;6.80;1.00
5980;DHT22;3016;50.308;8.258;2023-02-15T12:50:23;6.00;1.00
5980;DHT22;3016;50.308;8.258;2023-02-15T12:53:32;5.40;1.00
5980;DHT22;3016;50.308;8.258;2023-02-15T12:56:46;5.20;1.00
5980;DHT22;3016;50.308;8.258;2023-02-15T13:00:04;5.20;1.00
5980;DHT22;3016;50.308;8.258;2023-02-15T13:03:17;5.30;1.00
5980;DHT22;3016;50.308;8.258;2023-02-15T13:06:23;5.60;1.00
5980;DHT22;3016;50.308;8.258;2023-02-15T13:09:59;6.10;1.00
5980;DHT22;3016;50.308;8.258;2023-02-15T13:13:20;6.30;1.00
5980;DHT22;3016;50.308;8.258;2023-02-15T13:16:38;6.40;1.00
5980;DHT22;3016;50.308;8.258;2023-02-15T13:19:57;6.40;1.00
5980;DHT22;3016;50.308;8.258;2023-02-15T13:23:05;6.40;1.00
5980;DHT22;3016;50.308;8.258;2023-02-15T13:26:15;6.30;1.00
5980;DHT22;3016;50.308;8.258;2023-02-15T13:29:27;6.00;1.00
5980;DHT22;3016;50.308;8.258;2023-02-15T13:32:33;5.50;1.00
5980;DHT22;3016;50.308;8.258;2023-02-15T13:36:05;5.30;1.00
5980;DHT22;3016;50.308;8.258;2023-02-15T13:39:47;4.90;1.00
5980;DHT22;3016;50.308;8.258;2023-02-15T13:46:46;4.90;1.00
5980;DHT22;3016;50.308;8.258;2023-02-15T13:53:54;4.80;1.00
5980;DHT22;3016;50.308;8.258;2023-02-15T14:08:19;5.20;1.00
5980;DHT22;3016;50.308;8.258;2023-02-15T14:33:39;4.80;1.00
5980;DHT22;3016;50.308;8.258;2023-02-15T14:37:12;4.90;1.00
5980;DHT22;3016;50.308;8.258;2023-02-15T14:44:43;4.40;1.00
5980;DHT22;3016;50.308;8.258;2023-02-15T14:48:07;4.10;1.00
5980;DHT22;3016;50.308;8.258;2023-02-15T14:51:53;4.00;1.00
5980;DHT22;3016;50.308;8.258;2023-02-15T14:55:01;4.00;1.00
5980;DHT22;3016;50.308;8.258;2023-02-15T14:58:19;4.00;1.00
5980;DHT22;3016;50.308;8.258;2023-02-15T15:01:31;3.90;1.00
5980;DHT22;3016;50.308;8.258;2023-02-15T15:08:42;3.70;1.00
5980;DHT22;3016;50.308;8.258;2023-02-15T15:11:45;3.70;1.00
5980;DHT22;3016;50.308;8.258;2023-02-15T15:14:48;3.70;1.00
5980;DHT22;3016;50.308;8.258;2023-02-15T15:17:59;3.70;1.00
5980;DHT22;3016;50.308;8.258;2023-02-15T15:24:48;3.70;1.00
5980;DHT22;3016;50.308;8.258;2023-02-15T15:27:54;3.50;1.00
5980;DHT22;3016;50.308;8.258;2023-02-15T15:30:55;3.50;1.00
5980;DHT22;3016;50.308;8.258;2023-02-15T15:34:21;3.40;1.00
5980;DHT22;3016;50.308;8.258;2023-02-15T15:41:32;3.30;1.00
5980;DHT22;3016;50.308;8.258;2023-02-15T15:48:46;3.10;1.00
5980;DHT22;3016;50.308;8.258;2023-02-15T15:51:50;2.90;1.00
5980;DHT22;3016;50.308;8.258;2023-02-15T15:54:56;2.80;1.00
5980;DHT22;3016;50.308;8.258;2023-02-15T15:58:08;2.80;1.00
5980;DHT22;3016;50.308;8.258;2023-02-15T16:01:28;2.80;1.00
5980;DHT22;3016;50.308;8.258;2023-02-15T16:04:34;2.80;1.00
5980;DHT22;3016;50.308;8.258;2023-02-15T16:07:44;2.60;1.00
5980;DHT22;3016;50.308;8.258;2023-02-15T16:10:48;2.50;1.00
5980;DHT22;3016;50.308;8.258;2023-02-15T16:13:49;2.30;1.00
5980;DHT22;3016;50.308;8.258;2023-02-15T16:16:52;2.10;1.00
5980;DHT22;3016;50.308;8.258;2023-02-15T16:20:04;2.00;1.00
5980;DHT22;3016;50.308;8.258;2023-02-15T16:27:19;1.90;1.00
5980;DHT22;3016;50.308;8.258;2023-02-15T16:30:40;1.80;1.00
5980;DHT22;3016;50.308;8.258;2023-02-15T16:33:45;1.70;1.00
5980;DHT22;3016;50.308;8.258;2023-02-15T16:36:48;1.70;2.00
5980;DHT22;3016;50.308;8.258;2023-02-15T16:39:55;1.60;3.50
5980;DHT22;3016;50.308;8.258;2023-02-15T16:43:06;1.60;5.20
5980;DHT22;3016;50.308;8.258;2023-02-15T16:46:32;1.50;7.10
5980;DHT22;3016;50.308;8.258;2023-02-15T16:49:36;1.50;8.30
5980;DHT22;3016;50.308;8.258;2023-02-15T16:52:36;1.40;10.20
5980;DHT22;3016;50.308;8.258;2023-02-15T16:55:40;1.40;11.60
5980;DHT22;3016;50.308;8.258;2023-02-15T16:58:50;1.30;12.30
5980;DHT22;3016;50.308;8.258;2023-02-15T17:01:54;1.20;12.10
5980;DHT22;3016;50.308;8.258;2023-02-15T17:11:21;1.20;16.90
5980;DHT22;3016;50.308;8.258;2023-02-15T17:14:38;1.20;17.10
5980;DHT22;3016;50.308;8.258;2023-02-15T17:17:50;1.20;18.10
5980;DHT22;3016;50.308;8.258;2023-02-15T17:20:54;1.20;17.90
5980;DHT22;3016;50.308;8.258;2023-02-15T17:23:59;1.10;18.20
5980;DHT22;3016;50.308;8.258;2023-02-15T17:27:24;1.20;19.70
5980;DHT22;3016;50.308;8.258;2023-02-15T17:30:33;1.20;20.40
5980;DHT22;3016;50.308;8.258;2023-02-15T17:33:36;1.20;20.30
5980;DHT22;3016;50.308;8.258;2023-02-15T17:36:57;1.10;20.50
5980;DHT22;3016;50.308;8.258;2023-02-15T17:40:07;1.10;22.10
5980;DHT22;3016;50.308;8.258;2023-02-15T17:44:04;1.00;22.70
5980;DHT22;3016;50.308;8.258;2023-02-15T17:47:18;1.00;23.50
5980;DHT22;3016;50.308;8.258;2023-02-15T17:50:23;1.00;24.40
5980;DHT22;3016;50.308;8.258;2023-02-15T17:53:26;0.90;25.70
5980;DHT22;3016;50.308;8.258;2023-02-15T17:56:27;0.90;26.90
5980;DHT22;3016;50.308;8.258;2023-02-15T17:59:35;1.00;27.30
5980;DHT22;3016;50.308;8.258;2023-02-15T18:02:57;0.90;26.90
5980;DHT22;3016;50.308;8.258;2023-02-15T18:06:17;0.90;26.30
5980;DHT22;3016;50.308;8.258;2023-02-15T18:09:36;0.80;26.50
5980;DHT22;3016;50.308;8.258;2023-02-15T18:12:56;0.80;26.40
5980;DHT22;3016;50.308;8.258;2023-02-15T18:15:57;0.80;26.80
5980;DHT22;3016;50.308;8.258;2023-02-15T18:18:59;0.70;26.30
5980;DHT22;3016;50.308;8.258;2023-02-15T18:22:00;0.70;26.40
5980;DHT22;3016;50.308;8.258;2023-02-15T18:25:01;0.70;26.70
5980;DHT22;3016;50.308;8.258;2023-02-15T18:28:02;0.60;26.70
5980;DHT22;3016;50.308;8.258;2023-02-15T18:31:04;0.60;27.50
5980;DHT22;3016;50.308;8.258;2023-02-15T18:37:38;0.60;29.80
5980;DHT22;3016;50.308;8.258;2023-02-15T18:40:42;0.60;30.20
5980;DHT22;3016;50.308;8.258;2023-02-15T18:43:44;0.50;30.90
5980;DHT22;3016;50.308;8.258;2023-02-15T18:46:45;0.40;28.30
5980;DHT22;3016;50.308;8.258;2023-02-15T18:49:54;0.30;26.50
5980;DHT22;3016;50.308;8.258;2023-02-15T18:52:57;0.20;24.80
5980;DHT22;3016;50.308;8.258;2023-02-15T18:55:58;0.00;21.10
5980;DHT22;3016;50.308;8.258;2023-02-15T18:58:59;-0.20;19.20
5980;DHT22;3016;50.308;8.258;2023-02-15T19:02:00;-0.30;18.00
5980;DHT22;3016;50.308;8.258;2023-02-15T19:05:02;-0.40;17.60
5980;DHT22;3016;50.308;8.258;2023-02-15T19:08:16;-0.40;18.30
5980;DHT22;3016;50.308;8.258;2023-02-15T19:11:20;-0.30;23.20
5980;DHT22;3016;50.308;8.258;2023-02-15T19:14:28;-0.10;30.00
5980;DHT22;3016;50.308;8.258;2023-02-15T19:17:34;0.20;38.50
5980;DHT22;3016;50.308;8.258;2023-02-15T19:20:43;0.40;43.50
5980;DHT22;3016;50.308;8.258;2023-02-15T19:23:50;0.50;46.10
5980;DHT22;3016;50.308;8.258;2023-02-15T19:26:57;0.60;49.40
5980;DHT22;3016;50.308;8.258;2023-02-15T19:29:59;0.70;51.20
5980;DHT22;3016;50.308;8.258;2023-02-15T19:33:02;0.70;50.30
5980;DHT22;3016;50.308;8.258;2023-02-15T19:36:14;0.60;50.30
5980;DHT22;3016;50.308;8.258;2023-02-15T19:39:29;0.70;51.20
5980;DHT22;3016;50.308;8.258;2023-02-15T19:42:47;0.70;51.20
5980;DHT22;3016;50.308;8.258;2023-02-15T19:45:50;0.60;51.70
5980;DHT22;3016;50.308;8.258;2023-02-15T19:49:16;0.60;52.30
5980;DHT22;3016;50.308;8.258;2023-02-15T19:52:24;0.60;53.50
5980;DHT22;3016;50.308;8.258;2023-02-15T19:58:36;0.60;54.00
5980;DHT22;3016;50.308;8.258;2023-02-15T20:01:43;0.50;52.80
5980;DHT22;3016;50.308;8.258;2023-02-15T20:04:46;0.50;51.80
5980;DHT22;3016;50.308;8.258;2023-02-15T20:07:49;0.40;52.00
5980;DHT22;3016;50.308;8.258;2023-02-15T20:10:52;0.40;52.20
5980;DHT22;3016;50.308;8.258;2023-02-15T20:13:53;0.50;54.20
5980;DHT22;3016;50.308;8.258;2023-02-15T20:16:54;0.40;53.60
5980;DHT22;3016;50.308;8.258;2023-02-15T20:19:54;0.40;54.00
5980;DHT22;3016;50.308;8.258;2023-02-15T20:22:56;0.30;53.30
5980;DHT22;3016;50.308;8.258;2023-02-15T20:25:59;0.30;53.90
5980;DHT22;3016;50.308;8.258;2023-02-15T20:29:01;0.30;53.10
5980;DHT22;3016;50.308;8.258;2023-02-15T20:32:03;0.20;52.60
5980;DHT22;3016;50.308;8.258;2023-02-15T20:35:05;0.00;49.60
5980;DHT22;3016;50.308;8.258;2023-02-15T20:38:17;-0.10;48.00
5980;DHT22;3016;50.308;8.258;2023-02-15T20:41:24;-0.20;47.10
5980;DHT22;3016;50.308;8.258;2023-02-15T20:44:38;-0.30;46.40
5980;DHT22;3016;50.308;8.258;2023-02-15T20:47:48;-0.50;43.50
5980;DHT22;3016;50.308;8.258;2023-02-15T20:50:50;-0.70;39.10
5980;DHT22;3016;50.308;8.258;2023-02-15T20:53:54;-0.80;36.40
5980;DHT22;3016;50.308;8.258;2023-02-15T20:56:56;-1.00;34.60
5980;DHT22;3016;50.308;8.258;2023-02-15T20:59:57;-1.10;33.50
5980;DHT22;3016;50.308;8.258;2023-02-15T21:02:59;-1.10;33.00
5980;DHT22;3016;50.308;8.258;2023-02-15T21:06:01;-1.10;33.70
5980;DHT22;3016;50.308;8.258;2023-02-15T21:09:02;-1.20;32.90
5980;DHT22;3016;50.308;8.258;2023-02-15T21:12:04;-1.20;32.20
5980;DHT22;3016;50.308;8.258;2023-02-15T21:18:33;-1.30;31.60
5980;DHT22;3016;50.308;8.258;2023-02-15T21:21:34;-1.30;31.00
5980;DHT22;3016;50.308;8.258;2023-02-15T21:24:35;-1.40;30.30
5980;DHT22;3016;50.308;8.258;2023-02-15T21:27:36;-1.40;29.90
5980;DHT22;3016;50.308;8.258;2023-02-15T21:30:37;-1.40;29.50
5980;DHT22;3016;50.308;8.258;2023-02-15T21:33:38;-1.50;28.90
5980;DHT22;3016;50.308;8.258;2023-02-15T21:36:40;-1.50;29.00
5980;DHT22;3016;50.308;8.258;2023-02-15T21:39:42;-1.50;28.60
5980;DHT22;3016;50.308;8.258;2023-02-15T21:42:43;-1.60;28.30
5980;DHT22;3016;50.308;8.258;2023-02-15T21:46:17;-1.60;28.00
5980;DHT22;3016;50.308;8.258;2023-02-15T21:49:38;-1.60;28.10
5980;DHT22;3016;50.308;8.258;2023-02-15T21:52:39;-1.60;28.60
5980;DHT22;3016;50.308;8.258;2023-02-15T21:55:40;-1.70;28.70
5980;DHT22;3016;50.308;8.258;2023-02-15T21:58:41;-1.70;28.70
5980;DHT22;3016;50.308;8.258;2023-02-15T22:01:49;-1.70;29.00
5980;DHT22;3016;50.308;8.258;2023-02-15T22:04:55;-1.70;28.80
5980;DHT22;3016;50.308;8.258;2023-02-15T22:07:59;-1.70;29.60
5980;DHT22;3016;50.308;8.258;2023-02-15T22:11:00;-1.70;29.70
5980;DHT22;3016;50.308;8.258;2023-02-15T22:14:02;-1.70;29.60
5980;DHT22;3016;50.308;8.258;2023-02-15T22:17:25;-1.70;29.70
5980;DHT22;3016;50.308;8.258;2023-02-15T22:20:28;-1.70;29.90
5980;DHT22;3016;50.308;8.258;2023-02-15T22:23:29;-1.80;30.20
5980;DHT22;3016;50.308;8.258;2023-02-15T22:26:30;-1.70;31.00
5980;DHT22;3016;50.308;8.258;2023-02-15T22:29:32;-1.70;31.90
5980;DHT22;3016;50.308;8.258;2023-02-15T22:32:33;-1.70;32.50
5980;DHT22;3016;50.308;8.258;2023-02-15T22:35:34;-1.60;32.60
5980;DHT22;3016;50.308;8.258;2023-02-15T22:38:36;-1.60;32.60
5980;DHT22;3016;50.308;8.258;2023-02-15T22:41:37;-1.60;32.70
5980;DHT22;3016;50.308;8.258;2023-02-15T22:44:39;-1.60;32.60
5980;DHT22;3016;50.308;8.258;2023-02-15T22:47:40;-1.70;31.80
5980;DHT22;3016;50.308;8.258;2023-02-15T22:50:41;-1.70;31.20
5980;DHT22;3016;50.308;8.258;2023-02-15T22:53:42;-1.70;31.20
5980;DHT22;3016;50.308;8.258;2023-02-15T22:56:52;-1.70;31.00
5980;DHT22;3016;50.308;8.258;2023-02-15T22:59:53;-1.80;30.60
5980;DHT22;3016;50.308;8.258;2023-02-15T23:02:55;-1.80;30.20
5980;DHT22;3016;50.308;8.258;2023-02-15T23:05:56;-1.80;29.50